Mountain View, Missouri
Current Conditions -  °F | °C
As of 11:53 PM on Sunday 25 Jan 2015 (Local Time) from KUNO Reporting Station
Overcast Overcast  
Wind Chill: 25°   Ceiling: 800
Heat Index: 33°   Visibility: 9mi
Dew Point: 29°   Wind: 10mph
Humidity: 85%   Direction: 330°NNW
Pressure: 30.03"   Gusts: NA
Location:  37°N, 91.7°W
Report Text: KUNO 260553Z AUTO 33009KT 9SM OVC008 01/M02 A3003 RMK AO2 SLP172 60000 T00061017 10033 20006 400890006 51016
Loading
Personal Weather Stations






























Interactive Weather Map New forecast layout! Learn more

10-Day Weather Forecast

Advertisements
Track Severe Weather on mobile